createdAt,value
2022-12-08T00:01:34.018Z,99867.63
2022-12-08T00:04:05.710Z,99866.88
2022-12-08T00:06:52.895Z,99856.66
2022-12-08T00:09:23.379Z,99865.41
2022-12-08T00:11:57.262Z,99868.94
2022-12-08T00:14:27.781Z,99869.84
2022-12-08T00:16:56.599Z,99876.78
2022-12-08T00:19:27.164Z,99878.56
2022-12-08T00:21:56.001Z,99887.22
2022-12-08T00:24:25.846Z,99876.09
2022-12-08T00:26:53.940Z,99884.78
2022-12-08T00:29:22.129Z,99878.78
2022-12-08T00:31:50.298Z,99872.78
2022-12-08T00:34:18.531Z,99876.25
2022-12-08T00:36:48.264Z,99873.66
2022-12-08T00:39:18.515Z,99881.38
2022-12-08T00:42:04.073Z,99883.03
2022-12-08T00:44:32.167Z,99876.91
2022-12-08T00:47:00.357Z,99878.59
2022-12-08T00:49:28.450Z,99881.97
2022-12-08T00:51:58.012Z,99882.78
2022-12-08T00:54:26.451Z,99876.72
2022-12-08T00:56:54.643Z,99864.63
2022-12-08T00:59:22.885Z,99873.22
2022-12-08T01:01:50.962Z,99876.72
2022-12-08T01:04:20.767Z,99879.38
2022-12-08T01:06:49.754Z,99875.03
2022-12-08T01:09:20.137Z,99876.72
2022-12-08T01:11:49.386Z,99875.00
2022-12-08T01:14:17.591Z,99866.38
2022-12-08T01:16:45.809Z,99871.56
2022-12-08T01:19:15.297Z,99868.94
2022-12-08T01:21:44.322Z,99869.03
2022-12-08T01:24:13.770Z,99870.03
2022-12-08T01:26:43.599Z,99879.56
2022-12-08T01:29:12.263Z,99868.41
2022-12-08T01:31:41.112Z,99882.22
2022-12-08T01:34:09.867Z,99870.22
2022-12-08T01:36:38.591Z,99873.75
2022-12-08T01:39:09.138Z,99876.41
2022-12-08T01:41:39.224Z,99867.00
2022-12-08T01:44:40.674Z,99874.81
2022-12-08T01:47:10.912Z,99872.22
2022-12-08T01:49:39.160Z,99857.59
2022-12-08T01:52:12.319Z,99861.06
2022-12-08T01:54:44.517Z,99859.41
2022-12-08T01:57:16.920Z,99858.53
2022-12-08T01:59:51.255Z,99856.78
2022-12-08T02:02:20.878Z,99858.47
2022-12-08T02:04:49.060Z,99848.16
2022-12-08T02:07:19.090Z,99840.47
2022-12-08T02:09:47.816Z,99840.47
2022-12-08T02:12:16.494Z,99840.50
2022-12-08T02:14:44.798Z,99839.59
2022-12-08T02:17:28.634Z,99838.78
2022-12-08T02:20:38.728Z,99841.34
2022-12-08T02:23:14.611Z,99841.34
2022-12-08T02:26:03.191Z,99851.69
2022-12-08T02:28:48.048Z,99840.50
2022-12-08T02:31:32.352Z,99841.31
2022-12-08T02:34:14.253Z,99845.59
2022-12-08T02:36:51.238Z,99839.53
2022-12-08T02:39:29.794Z,99837.78
2022-12-08T02:42:08.278Z,99828.25
2022-12-08T02:44:40.861Z,99825.59
2022-12-08T02:47:13.845Z,99822.19
2022-12-08T02:49:43.450Z,99825.53
2022-12-08T02:52:45.092Z,99825.44
2022-12-08T02:55:24.197Z,99833.09
2022-12-08T02:58:27.528Z,99827.03
2022-12-08T03:01:10.486Z,99820.13
2022-12-08T03:03:44.056Z,99824.50
2022-12-08T03:06:23.451Z,99828.75
2022-12-08T03:08:56.829Z,99823.66
2022-12-08T03:11:30.478Z,99816.81
2022-12-08T03:14:02.452Z,99818.47
2022-12-08T03:16:34.020Z,99819.28
2022-12-08T03:19:08.243Z,99820.09
2022-12-08T03:21:40.398Z,99820.00
2022-12-08T03:24:11.294Z,99814.72
2022-12-08T03:26:47.046Z,99816.38
2022-12-08T03:29:15.625Z,99811.25
2022-12-08T03:31:50.641Z,99820.69
2022-12-08T03:34:20.040Z,99816.31
2022-12-08T03:36:49.548Z,99811.22
2022-12-08T03:39:17.663Z,99807.88
2022-12-08T03:41:46.861Z,99795.84
2022-12-08T03:44:15.064Z,99813.03
2022-12-08T03:46:43.147Z,99821.59
2022-12-08T03:49:11.562Z,99807.72
2022-12-08T03:51:39.692Z,99808.50
2022-12-08T03:54:09.231Z,99808.47
2022-12-08T03:56:39.500Z,99811.00
2022-12-08T03:59:08.799Z,99802.28
2022-12-08T04:01:36.947Z,99794.44
2022-12-08T04:04:05.468Z,99799.59
2022-12-08T04:06:33.622Z,99795.25
2022-12-08T04:09:01.695Z,99806.31
2022-12-08T04:11:31.217Z,99788.03
2022-12-08T04:13:59.330Z,99788.00
2022-12-08T04:16:28.669Z,99792.22
2022-12-08T04:18:56.831Z,99779.28
2022-12-08T04:21:25.016Z,99773.16
2022-12-08T04:23:57.661Z,99774.84
2022-12-08T04:26:30.707Z,99782.53
2022-12-08T04:28:58.803Z,99776.41
2022-12-08T04:31:26.965Z,99777.19
2022-12-08T04:33:55.105Z,99774.53
2022-12-08T04:36:23.204Z,99783.16
2022-12-08T04:38:51.599Z,99782.25
2022-12-08T04:41:19.683Z,99790.16
2022-12-08T04:43:49.170Z,99788.44
2022-12-08T04:46:17.308Z,99787.59
2022-12-08T04:48:45.526Z,99777.34
2022-12-08T04:51:16.533Z,99780.72
2022-12-08T04:53:46.746Z,99783.25
2022-12-08T04:56:15.985Z,99773.78
2022-12-08T04:58:44.133Z,99779.81
2022-12-08T05:01:14.073Z,99784.09
2022-12-08T05:03:42.492Z,99784.94
2022-12-08T05:06:12.245Z,99776.31
2022-12-08T05:08:40.379Z,99778.81
2022-12-08T05:11:10.927Z,99780.50
2022-12-08T05:13:39.336Z,99778.72
2022-12-08T05:16:10.007Z,99788.19
2022-12-08T05:18:40.741Z,99789.06
2022-12-08T05:21:09.800Z,99783.88
2022-12-08T05:23:37.947Z,99790.72
2022-12-08T05:26:06.247Z,99794.19
2022-12-08T05:28:42.931Z,99782.91
2022-12-08T05:31:11.924Z,99776.03
2022-12-08T05:33:42.242Z,99775.13
2022-12-08T05:36:13.076Z,99769.88
2022-12-08T05:38:41.611Z,99760.28
2022-12-08T05:41:10.461Z,99753.34
2022-12-08T05:43:38.591Z,99747.16
2022-12-08T05:46:07.223Z,99753.97
2022-12-08T05:48:35.422Z,99756.56
2022-12-08T05:51:05.081Z,99762.53
2022-12-08T05:53:33.170Z,99769.38
2022-12-08T05:56:01.303Z,99754.81
2022-12-08T05:58:29.376Z,99765.13
2022-12-08T06:00:57.492Z,99771.16
2022-12-08T06:03:25.711Z,99772.97
2022-12-08T06:05:53.894Z,99765.28
2022-12-08T06:08:23.502Z,99771.19
2022-12-08T06:10:51.908Z,99773.81
2022-12-08T06:13:20.110Z,99784.16
2022-12-08T06:15:48.470Z,99778.97
2022-12-08T06:18:16.542Z,99777.22
2022-12-08T06:20:44.615Z,99783.34
2022-12-08T06:23:13.121Z,99783.22
2022-12-08T06:25:42.714Z,99772.84
2022-12-08T06:28:10.810Z,99775.41
2022-12-08T06:30:39.328Z,99783.16
2022-12-08T06:33:07.428Z,99783.06
2022-12-08T06:35:35.514Z,99789.03
2022-12-08T06:38:03.654Z,99791.56
2022-12-08T06:40:31.726Z,99786.38
2022-12-08T06:43:01.218Z,99785.47
2022-12-08T06:45:29.416Z,99793.06
2022-12-08T06:47:57.535Z,99790.41
2022-12-08T06:50:25.703Z,99787.72
2022-12-08T06:53:03.040Z,99796.31
2022-12-08T06:55:57.748Z,99798.81
2022-12-08T06:58:22.495Z,99798.63
2022-12-08T07:00:50.640Z,99794.25
2022-12-08T07:03:18.782Z,99794.91
2022-12-08T07:05:46.878Z,99799.13
2022-12-08T07:08:15.091Z,99795.63
2022-12-08T07:10:43.309Z,99799.03
2022-12-08T07:13:11.396Z,99791.16
2022-12-08T07:15:40.914Z,99797.13
2022-12-08T07:18:09.031Z,99796.28
2022-12-08T07:20:37.131Z,99800.53
2022-12-08T07:23:05.262Z,99795.19
2022-12-08T07:25:33.409Z,99793.38
2022-12-08T07:28:01.515Z,99787.25
2022-12-08T07:30:29.742Z,99787.94
2022-12-08T07:32:59.399Z,99782.66
2022-12-08T07:35:27.500Z,99790.19
2022-12-08T07:37:55.630Z,99785.00
2022-12-08T07:40:23.729Z,99787.47
2022-12-08T07:42:51.820Z,99781.38
2022-12-08T07:45:19.998Z,99783.97
2022-12-08T07:47:48.101Z,99786.44
2022-12-08T07:50:17.842Z,99780.16
2022-12-08T07:52:45.914Z,99778.13
2022-12-08T07:55:14.025Z,99779.72
2022-12-08T07:57:42.141Z,99782.22
2022-12-08T08:00:12.461Z,99783.84
2022-12-08T08:02:41.091Z,99787.19
2022-12-08T08:05:10.636Z,99786.94
2022-12-08T08:07:42.183Z,99784.84
2022-12-08T08:10:13.741Z,99787.19
2022-12-08T08:12:41.938Z,99780.28
2022-12-08T08:15:11.338Z,99778.34
2022-12-08T08:17:39.675Z,99779.81
2022-12-08T08:20:09.939Z,99775.19
2022-12-08T08:22:39.412Z,99780.22
2022-12-08T08:25:08.118Z,99774.81
2022-12-08T08:27:36.184Z,99773.00
2022-12-08T08:30:04.960Z,99765.84
2022-12-08T08:32:34.594Z,99763.09
2022-12-08T08:35:02.733Z,99770.69
2022-12-08T08:37:30.967Z,99773.16
2022-12-08T08:40:00.435Z,99768.56
2022-12-08T08:42:29.091Z,99772.66
2022-12-08T08:44:57.256Z,99773.50
2022-12-08T08:47:25.382Z,99761.97
2022-12-08T08:49:53.507Z,99769.66
2022-12-08T08:52:21.634Z,99773.66
2022-12-08T08:54:49.910Z,99769.03
2022-12-08T08:57:25.097Z,99756.59
2022-12-08T08:59:53.872Z,99762.50
2022-12-08T09:02:22.546Z,99758.03
2022-12-08T09:04:50.855Z,99759.75
2022-12-08T09:07:19.075Z,99761.50
2022-12-08T09:09:47.162Z,99772.63
2022-12-08T09:12:15.242Z,99767.56
2022-12-08T09:14:44.754Z,99752.44
2022-12-08T09:17:12.898Z,99739.47
2022-12-08T09:19:41.003Z,99742.88
2022-12-08T09:22:09.122Z,99751.53
2022-12-08T09:24:37.177Z,99755.97
2022-12-08T09:27:05.416Z,99751.53
2022-12-08T09:29:36.235Z,99753.00
2022-12-08T09:32:06.470Z,99751.22
2022-12-08T09:34:34.571Z,99742.50
2022-12-08T09:37:02.669Z,99744.19
2022-12-08T09:39:30.765Z,99743.34
2022-12-08T09:42:01.416Z,99732.16
2022-12-08T09:44:55.462Z,99716.31
2022-12-08T09:47:35.279Z,99706.63
2022-12-08T09:50:08.606Z,99717.16
2022-12-08T09:52:42.367Z,99714.28
2022-12-08T09:55:18.524Z,99712.16
2022-12-08T09:57:51.632Z,99710.84
2022-12-08T10:00:23.454Z,99713.47
2022-12-08T10:02:53.166Z,99714.03
2022-12-08T10:05:21.982Z,99700.88
2022-12-08T10:07:56.585Z,99716.38
2022-12-08T10:10:37.229Z,99714.50
2022-12-08T10:13:17.981Z,99717.13
2022-12-08T10:15:52.240Z,99709.38
2022-12-08T10:18:27.751Z,99714.41
2022-12-08T10:21:00.546Z,99705.44
2022-12-08T10:23:32.815Z,99712.38
2022-12-08T10:26:03.760Z,99704.16
2022-12-08T10:28:32.966Z,99705.75
2022-12-08T10:31:01.358Z,99699.19
2022-12-08T10:33:34.009Z,99690.50
2022-12-08T10:36:05.012Z,99684.44
2022-12-08T10:38:34.896Z,99677.63
2022-12-08T10:41:13.585Z,99673.78
2022-12-08T10:43:46.368Z,99677.75
2022-12-08T10:46:15.907Z,99673.53
2022-12-08T10:48:56.488Z,99658.00
2022-12-08T10:51:29.104Z,99653.53
2022-12-08T10:53:57.533Z,99639.69
2022-12-08T10:56:30.265Z,99641.84
2022-12-08T10:59:13.073Z,99642.50
2022-12-08T11:01:42.926Z,99644.84
2022-12-08T11:04:18.534Z,99640.91
2022-12-08T11:06:48.021Z,99628.44
2022-12-08T11:09:35.384Z,99622.44
2022-12-08T11:12:09.282Z,99622.34
2022-12-08T11:14:49.146Z,99610.00
2022-12-08T11:17:19.203Z,99613.09
2022-12-08T11:20:02.670Z,99606.72
2022-12-08T11:22:33.478Z,99610.00
2022-12-08T11:25:04.146Z,99602.19
2022-12-08T11:27:34.861Z,99592.19
2022-12-08T11:30:04.189Z,99577.53
2022-12-08T11:32:34.834Z,99573.91
2022-12-08T11:35:07.747Z,99554.75
2022-12-08T11:37:40.325Z,99560.78
2022-12-08T11:40:19.407Z,99553.53
2022-12-08T11:42:57.552Z,99549.22
2022-12-08T11:45:29.765Z,99543.44
2022-12-08T11:48:06.782Z,99546.13
2022-12-08T11:50:44.593Z,99552.25
2022-12-08T11:53:19.549Z,99552.84
2022-12-08T11:55:53.519Z,99546.72
2022-12-08T11:58:27.937Z,99535.78
2022-12-08T12:00:56.092Z,99540.03
2022-12-08T12:03:32.461Z,99547.13
2022-12-08T12:09:12.537Z,99550.59
2022-12-08T12:12:06.892Z,99540.25
2022-12-08T12:14:58.754Z,99540.47
2022-12-08T12:17:39.326Z,99547.50
2022-12-08T12:20:17.594Z,99533.88
2022-12-08T12:22:50.732Z,99545.91
2022-12-08T12:25:23.757Z,99547.84
2022-12-08T12:27:57.164Z,99543.47
2022-12-08T12:30:27.921Z,99552.84
2022-12-08T12:32:58.352Z,99549.44
2022-12-08T12:35:34.941Z,99550.28
2022-12-08T12:38:28.712Z,99552.84
2022-12-08T12:41:02.522Z,99547.50
2022-12-08T12:43:33.644Z,99546.91
2022-12-08T12:46:50.142Z,99542.19
2022-12-08T12:49:55.246Z,99533.44
2022-12-08T12:52:46.123Z,99519.97
2022-12-08T12:55:52.906Z,99528.00
2022-12-08T12:58:40.900Z,99521.94
2022-12-08T13:01:46.458Z,99518.47
2022-12-08T13:04:16.372Z,99529.66
2022-12-08T13:06:47.149Z,99519.31
2022-12-08T13:09:30.408Z,99512.41
2022-12-08T13:12:02.578Z,99505.59
2022-12-08T13:14:33.874Z,99510.88
2022-12-08T13:17:05.658Z,99498.75
2022-12-08T13:19:34.944Z,99503.91
2022-12-08T13:22:03.084Z,99498.78
2022-12-08T13:24:36.610Z,99499.59
2022-12-08T13:27:33.974Z,99493.56
2022-12-08T13:30:42.770Z,99493.66
2022-12-08T13:33:19.560Z,99492.66
2022-12-08T13:36:02.143Z,99500.44
2022-12-08T13:38:34.054Z,99512.50
2022-12-08T13:41:04.842Z,99510.63
2022-12-08T13:43:52.464Z,99505.56
2022-12-08T13:56:37.422Z,99495.44
2022-12-08T13:58:18.359Z,99496.56
2022-12-08T14:00:58.854Z,99497.59
2022-12-08T14:03:27.226Z,99496.75
2022-12-08T14:06:12.230Z,99485.88
2022-12-08T14:09:05.063Z,99497.13
2022-12-08T14:11:36.460Z,99494.53
2022-12-08T14:14:07.926Z,99480.81
2022-12-08T14:16:41.178Z,99482.34
2022-12-08T14:19:19.204Z,99483.34
2022-12-08T14:21:58.471Z,99488.56
2022-12-08T14:24:27.811Z,99500.09
2022-12-08T14:26:59.185Z,99505.31
2022-12-08T14:29:40.703Z,99501.94
2022-12-08T14:32:22.572Z,99505.47
2022-12-08T14:35:00.553Z,99505.53
2022-12-08T14:37:31.270Z,99501.94
2022-12-08T14:40:02.671Z,99502.91
2022-12-08T14:42:31.489Z,99499.63
2022-12-08T14:45:02.882Z,99499.63
2022-12-08T14:47:34.723Z,99498.94
2022-12-08T14:50:05.619Z,99498.25
2022-12-08T14:52:34.052Z,99492.22
2022-12-08T14:55:02.170Z,99503.63
2022-12-08T14:57:36.483Z,99491.66
2022-12-08T15:00:12.451Z,99492.44
2022-12-08T15:02:47.880Z,99480.47
2022-12-08T15:05:19.203Z,99484.78
2022-12-08T15:07:50.559Z,99482.31
2022-12-08T15:10:27.751Z,99485.84
2022-12-08T15:13:05.988Z,99484.06
2022-12-08T15:15:47.977Z,99482.22
2022-12-08T15:18:19.960Z,99486.63
2022-12-08T15:20:51.666Z,99488.31
2022-12-08T15:23:26.855Z,99493.66
2022-12-08T15:25:58.425Z,99495.34
2022-12-08T15:28:30.450Z,99489.31
2022-12-08T15:30:59.537Z,99472.81
2022-12-08T15:33:29.251Z,99476.25
2022-12-08T15:35:57.377Z,99483.25
2022-12-08T15:38:27.721Z,99475.59
2022-12-08T15:40:57.645Z,99472.00
2022-12-08T15:43:26.029Z,99473.59
2022-12-08T15:45:59.500Z,99464.78
2022-12-08T15:48:31.332Z,99457.13
2022-12-08T15:50:59.599Z,99462.28
2022-12-08T15:53:27.996Z,99457.97
2022-12-08T15:58:54.011Z,99457.19
2022-12-08T16:01:23.346Z,99461.94
2022-12-08T16:07:20.177Z,99476.72
2022-12-08T16:09:33.862Z,99488.84
2022-12-08T16:12:20.200Z,99484.41
2022-12-08T16:17:37.197Z,99466.31
2022-12-08T16:20:12.475Z,99473.13
2022-12-08T16:25:46.250Z,99448.94
2022-12-08T16:28:52.305Z,99447.38
2022-12-08T16:31:13.015Z,99440.34
2022-12-08T16:33:42.270Z,99436.97
2022-12-08T16:36:12.439Z,99446.66
2022-12-08T16:38:40.722Z,99447.47
2022-12-08T16:41:32.476Z,99458.72
2022-12-08T16:44:03.377Z,99452.84
2022-12-08T16:46:32.551Z,99463.28
2022-12-08T16:49:00.750Z,99468.47
2022-12-08T16:51:30.502Z,99459.97
2022-12-08T16:53:59.179Z,99459.13
2022-12-08T16:56:32.764Z,99458.38
2022-12-08T16:59:02.161Z,99465.28
2022-12-08T17:01:30.610Z,99465.38
2022-12-08T17:04:29.773Z,99465.31
2022-12-08T17:06:50.671Z,99464.53
